Bow Lima — 3EMG9 — position and weather

sailwx.info

Track history (hours):
 
Tides and Currents Weather Stations Pressure Air Temp Water Temp Dewpoint Dewpoint Depression Visibility Wind Speed Wind Dir Waves Ship Positions

Bow Lima

Last reported at 2018-Feb-20 04:00 UTC. Time now 2018-Feb-20 04:17 UTC.
Position N 24°14' E 118°17'.

Length 144 m; draft 10 m.

Type: Ship (hazmat cat A). MMSI: 353610000.

Date/timePositionNaut miles runAvg speedWind from/ knotsBaromVisibWave heightAir tempDewpointWater temp
2018-Feb-20 04:00N 24°14' E 118°17'5 9.3
2018-Feb-20 03:30N 24°17' E 118°13'5 9.5
2018-Feb-20 03:00N 24°21' E 118°10'5 8.9
2018-Feb-20 02:30N 24°24' E 118°06'5 9.9
2018-Feb-20 02:00N 24°26' E 118°02'1 1.2
2018-Feb-20 01:29N 24°27' E 118°01'0 0.0
2018-Feb-20 00:59N 24°27' E 118°01'0 0.0
2018-Feb-20 00:29N 24°27' E 118°01'0 0.0
2018-Feb-19 23:59N 24°27' E 118°01'0 0.0
2018-Feb-19 23:29N 24°27' E 118°01'0 0.0
2018-Feb-19 22:59N 24°27' E 118°01'0 0.0
2018-Feb-19 22:29N 24°27' E 118°01'0 0.0
2018-Feb-19 21:59N 24°27' E 118°01'0 0.0
2018-Feb-19 21:23N 24°27' E 118°01'0 0.0
2018-Feb-19 20:59N 24°27' E 118°01'0 0.0
2018-Feb-19 20:29N 24°27' E 118°01'0 0.0
2018-Feb-19 19:59N 24°27' E 118°01'0 0.0
2018-Feb-19 19:29N 24°27' E 118°01'0 0.0
2018-Feb-19 18:59N 24°27' E 118°01'0 0.0
2018-Feb-19 18:29N 24°27' E 118°01'0 0.0
2018-Feb-19 17:59N 24°27' E 118°01'0 0.0
2018-Feb-19 17:29N 24°27' E 118°01'0 0.0
2018-Feb-19 16:56N 24°27' E 118°01'0 0.0
2018-Feb-19 16:29N 24°27' E 118°01'0 0.0
2018-Feb-19 15:56N 24°27' E 118°01'0 0.0
2018-Feb-19 15:29N 24°27' E 118°01'0 0.0
2018-Feb-19 14:59N 24°27' E 118°01'0 0.0
2018-Feb-19 14:29N 24°27' E 118°01'0 0.0
2018-Feb-19 13:59N 24°27' E 118°01'0 0.0
2018-Feb-19 13:29N 24°27' E 118°01'0 0.0
2018-Feb-19 12:59N 24°27' E 118°01'0 0.0
2018-Feb-19 12:29N 24°27' E 118°01'0 0.0
2018-Feb-19 11:59N 24°27' E 118°01'0 0.0
2018-Feb-19 11:29N 24°27' E 118°01'0 0.0
2018-Feb-19 10:59N 24°27' E 118°01'0 0.0
2018-Feb-19 10:29N 24°27' E 118°01'0 0.0
2018-Feb-19 09:59N 24°27' E 118°01'0 0.0
2018-Feb-19 09:29N 24°27' E 118°01'0 0.0
2018-Feb-19 08:59N 24°27' E 118°01'0 0.0
2018-Feb-19 08:23N 24°27' E 118°01'0 0.0
2018-Feb-19 07:59N 24°27' E 118°01'0 0.0
2018-Feb-19 07:29N 24°27' E 118°01'0 0.0
2018-Feb-19 06:59N 24°27' E 118°01'0 0.0
2018-Feb-19 06:29N 24°27' E 118°01'0 0.0
2018-Feb-19 05:59N 24°27' E 118°01'0 0.0
2018-Feb-19 05:29N 24°27' E 118°01'0 0.0
2018-Feb-19 04:59N 24°27' E 118°01'0 0.0
2018-Feb-19 04:29N 24°27' E 118°01'0 0.0
2018-Feb-19 03:59N 24°27' E 118°01'0 0.0
2018-Feb-19 03:29N 24°27' E 118°01'0 0.0
2018-Feb-19 03:01N 24°27' E 118°01'1 1.7
2018-Feb-19 02:30N 24°26' E 118°02'510.7
2018-Feb-19 02:00N 24°23' E 118°07'612.9
2018-Feb-19 01:30N 24°19' E 118°12'612.2
2018-Feb-19 01:00N 24°14' E 118°16'5 9.3
2018-Feb-19 00:30N 24°10' E 118°19'611.8
2018-Feb-19 00:01N 24°04' E 118°19'510.3
2018-Feb-18 23:30N 24°00' E 118°15'816.8
2018-Feb-18 23:00N 23°54' E 118°10'816.7
2018-Feb-18 22:30N 23°47' E 118°05'918.2
2018-Feb-18 22:00N 23°39' E 117°59'918.0
2018-Feb-18 21:30N 23°32' E 117°53'917.5
2018-Feb-18 21:00N 23°26' E 117°47'917.4
2018-Feb-18 20:30N 23°20' E 117°40'917.5
2018-Feb-18 20:00N 23°13' E 117°33'918.0
2018-Feb-18 19:30N 23°06' E 117°27'1818.7
2018-Feb-18 18:33N 22°54' E 117°13'419.7
2018-Feb-18 18:22N 22°52' E 117°10'17215.5
2018-Feb-18 07:16N 22°20' E 114°07'1 1.7
2018-Feb-18 06:48N 22°20' E 114°08'  
2018-Feb-13 17:01N 01°24' E 104°28'314.3
2018-Feb-13 16:46N 01°21' E 104°25'2012.9
2018-Feb-13 15:12N 01°15' E 104°06'313.8
2018-Feb-13 15:00N 01°15' E 104°04'713.9
2018-Feb-13 14:31N 01°13' E 103°57'612.0
2018-Feb-13 14:00N 01°12' E 103°51'4 7.5
2018-Feb-13 13:30N 01°13' E 103°48'3 5.9
2018-Feb-13 12:56N 01°16' E 103°47'0 0.2
2018-Feb-13 12:26N 01°16' E 103°46'0 0.1
2018-Feb-13 11:56N 01°16' E 103°46'0 0.0
2018-Feb-13 11:29N 01°16' E 103°46'0 0.0
2018-Feb-13 10:59N 01°16' E 103°46'0 0.0
2018-Feb-13 10:26N 01°16' E 103°46'0 0.0
2018-Feb-13 09:59N 01°16' E 103°46'0 0.0
2018-Feb-13 09:29N 01°16' E 103°46'0 0.0
2018-Feb-13 08:56N 01°16' E 103°46'0 0.0
2018-Feb-13 08:26N 01°16' E 103°46'0 0.0
2018-Feb-13 07:56N 01°16' E 103°46'0 0.0
2018-Feb-13 07:26N 01°16' E 103°46'0 0.1
2018-Feb-13 06:59N 01°16' E 103°46'0 0.1
2018-Feb-13 06:29N 01°16' E 103°46'0 0.0
2018-Feb-13 05:59N 01°16' E 103°46'0 0.0
2018-Feb-13 05:29N 01°16' E 103°46'0 0.1
2018-Feb-13 04:56N 01°16' E 103°46'0 0.1
2018-Feb-13 04:20N 01°16' E 103°46'0 0.0
2018-Feb-13 03:56N 01°16' E 103°46'0 0.0
2018-Feb-13 03:26N 01°16' E 103°46'0 0.0
2018-Feb-13 02:56N 01°16' E 103°46'0 0.0
2018-Feb-13 02:29N 01°16' E 103°46'0 0.0
2018-Feb-13 01:59N 01°16' E 103°46'0 0.0
2018-Feb-13 01:29N 01°16' E 103°46'0 0.1
2018-Feb-13 00:56N 01°16' E 103°46'0 0.0
2018-Feb-13 00:29N 01°16' E 103°46'0 0.1
2018-Feb-12 23:59N 01°16' E 103°46'0 0.1
2018-Feb-12 23:29N 01°16' E 103°46'0 0.1
2018-Feb-12 22:56N 01°16' E 103°46'0 0.0
2018-Feb-12 22:26N 01°16' E 103°46'0 0.0
2018-Feb-12 21:59N 01°16' E 103°46'0 0.0
2018-Feb-12 21:29N 01°16' E 103°46'0 0.0
2018-Feb-12 20:56N 01°16' E 103°46'0 0.0
2018-Feb-12 20:26N 01°16' E 103°46'0 0.0
2018-Feb-12 19:56N 01°16' E 103°46'0 0.0
2018-Feb-12 19:29N 01°16' E 103°46'0 0.0
2018-Feb-12 18:59N 01°16' E 103°46'0 0.0
2018-Feb-12 18:29N 01°16' E 103°46'0 0.0
2018-Feb-12 17:56N 01°16' E 103°46'0 0.1
2018-Feb-12 17:26N 01°16' E 103°46'0 0.1
2018-Feb-12 16:56N 01°16' E 103°46'0 0.0
2018-Feb-12 16:26N 01°16' E 103°46'0 0.0
2018-Feb-12 15:50N 01°16' E 103°46'0 0.0
2018-Feb-12 15:14N 01°16' E 103°46'0 0.0
2018-Feb-12 14:56N 01°16' E 103°46'0 0.0
2018-Feb-12 14:26N 01°16' E 103°46'0 0.0
2018-Feb-12 14:00N 01°16' E 103°46'0 0.0
2018-Feb-12 13:30N 01°16' E 103°46'0 0.0
2018-Feb-12 13:00N 01°16' E 103°46'0 0.0
2018-Feb-12 12:24N 01°16' E 103°46'0 0.0
2018-Feb-12 12:00N 01°16' E 103°46'0 0.0
2018-Feb-12 11:30N 01°16' E 103°46'0 0.1
2018-Feb-12 11:00N 01°16' E 103°46'0 0.0
2018-Feb-12 10:30N 01°16' E 103°46'0 0.1
2018-Feb-12 10:00N 01°16' E 103°46'0 0.0
2018-Feb-12 09:30N 01°16' E 103°46'0 0.0
2018-Feb-12 09:00N 01°16' E 103°46'0 0.0
2018-Feb-12 08:30N 01°16' E 103°46'0 0.0
2018-Feb-12 08:00N 01°16' E 103°46'0 0.1
2018-Feb-12 07:30N 01°16' E 103°46'0 0.0
2018-Feb-12 07:00N 01°16' E 103°46'0 0.1
2018-Feb-12 06:30N 01°16' E 103°46'0 0.0
2018-Feb-12 06:00N 01°16' E 103°46'0 0.1
2018-Feb-12 05:30N 01°16' E 103°46'0 0.0
2018-Feb-12 05:00N 01°16' E 103°46'0 0.0
2018-Feb-12 04:30N 01°16' E 103°46'0 0.0
2018-Feb-12 03:57N 01°16' E 103°46'0 0.0
2018-Feb-12 03:30N 01°16' E 103°46'0 0.0
2018-Feb-12 02:54N 01°16' E 103°46'0 0.0
2018-Feb-12 02:30N 01°16' E 103°46'0 0.0
2018-Feb-12 02:00N 01°16' E 103°46'0 0.1
2018-Feb-12 01:30N 01°16' E 103°46'0 0.4
2018-Feb-12 01:00N 01°16' E 103°47'1 2.6
2018-Feb-12 00:30N 01°15' E 103°46'3 5.3
2018-Feb-12 00:00N 01°15' E 103°43'5 9.8
2018-Feb-11 23:29N 01°12' E 103°39'4 8.1
2018-Feb-11 23:00N 01°12' E 103°35'3 5.0
2018-Feb-11 22:30N 01°12' E 103°33'4 7.0
2018-Feb-11 22:00N 01°10' E 103°29'510.7
2018-Feb-11 21:29N 01°12' E 103°24'611.8
2018-Feb-11 20:57N 01°16' E 103°20'511.3
2018-Feb-11 20:30N 01°19' E 103°15'  
Track history (hours):
 
Tides and Currents Weather Stations Pressure Air Temp Water Temp Dewpoint Dewpoint Depression Visibility Wind Speed Wind Dir Waves Ship Positions

Bow Lima

Last reported at 2018-Feb-20 04:00 UTC. Time now 2018-Feb-20 04:17 UTC.
Position N 24°14' E 118°17'.

Length 144 m; draft 10 m.

Type: Ship (hazmat cat A). MMSI: 353610000.

Date/timePositionNaut miles runAvg speedWind from/ knotsBaromVisibWave heightAir tempDewpointWater temp
2018-Feb-20 04:00N 24°14' E 118°17'5 9.3
2018-Feb-20 03:30N 24°17' E 118°13'5 9.5
2018-Feb-20 03:00N 24°21' E 118°10'5 8.9
2018-Feb-20 02:30N 24°24' E 118°06'5 9.9
2018-Feb-20 02:00N 24°26' E 118°02'1 1.2
2018-Feb-20 01:29N 24°27' E 118°01'0 0.0
2018-Feb-20 00:59N 24°27' E 118°01'0 0.0
2018-Feb-20 00:29N 24°27' E 118°01'0 0.0
2018-Feb-19 23:59N 24°27' E 118°01'0 0.0
2018-Feb-19 23:29N 24°27' E 118°01'0 0.0
2018-Feb-19 22:59N 24°27' E 118°01'0 0.0
2018-Feb-19 22:29N 24°27' E 118°01'0 0.0
2018-Feb-19 21:59N 24°27' E 118°01'0 0.0
2018-Feb-19 21:23N 24°27' E 118°01'0 0.0
2018-Feb-19 20:59N 24°27' E 118°01'0 0.0
2018-Feb-19 20:29N 24°27' E 118°01'0 0.0
2018-Feb-19 19:59N 24°27' E 118°01'0 0.0
2018-Feb-19 19:29N 24°27' E 118°01'0 0.0
2018-Feb-19 18:59N 24°27' E 118°01'0 0.0
2018-Feb-19 18:29N 24°27' E 118°01'0 0.0
2018-Feb-19 17:59N 24°27' E 118°01'0 0.0
2018-Feb-19 17:29N 24°27' E 118°01'0 0.0
2018-Feb-19 16:56N 24°27' E 118°01'0 0.0
2018-Feb-19 16:29N 24°27' E 118°01'0 0.0
2018-Feb-19 15:56N 24°27' E 118°01'0 0.0
2018-Feb-19 15:29N 24°27' E 118°01'0 0.0
2018-Feb-19 14:59N 24°27' E 118°01'0 0.0
2018-Feb-19 14:29N 24°27' E 118°01'0 0.0
2018-Feb-19 13:59N 24°27' E 118°01'0 0.0
2018-Feb-19 13:29N 24°27' E 118°01'0 0.0
2018-Feb-19 12:59N 24°27' E 118°01'0 0.0
2018-Feb-19 12:29N 24°27' E 118°01'0 0.0
2018-Feb-19 11:59N 24°27' E 118°01'0 0.0
2018-Feb-19 11:29N 24°27' E 118°01'0 0.0
2018-Feb-19 10:59N 24°27' E 118°01'0 0.0
2018-Feb-19 10:29N 24°27' E 118°01'0 0.0
2018-Feb-19 09:59N 24°27' E 118°01'0 0.0
2018-Feb-19 09:29N 24°27' E 118°01'0 0.0
2018-Feb-19 08:59N 24°27' E 118°01'0 0.0
2018-Feb-19 08:23N 24°27' E 118°01'0 0.0
2018-Feb-19 07:59N 24°27' E 118°01'0 0.0
2018-Feb-19 07:29N 24°27' E 118°01'0 0.0
2018-Feb-19 06:59N 24°27' E 118°01'0 0.0
2018-Feb-19 06:29N 24°27' E 118°01'0 0.0
2018-Feb-19 05:59N 24°27' E 118°01'0 0.0
2018-Feb-19 05:29N 24°27' E 118°01'0 0.0
2018-Feb-19 04:59N 24°27' E 118°01'0 0.0
2018-Feb-19 04:29N 24°27' E 118°01'0 0.0
2018-Feb-19 03:59N 24°27' E 118°01'0 0.0
2018-Feb-19 03:29N 24°27' E 118°01'0 0.0
2018-Feb-19 03:01N 24°27' E 118°01'1 1.7
2018-Feb-19 02:30N 24°26' E 118°02'510.7
2018-Feb-19 02:00N 24°23' E 118°07'612.9
2018-Feb-19 01:30N 24°19' E 118°12'612.2
2018-Feb-19 01:00N 24°14' E 118°16'5 9.3
2018-Feb-19 00:30N 24°10' E 118°19'611.8
2018-Feb-19 00:01N 24°04' E 118°19'510.3
2018-Feb-18 23:30N 24°00' E 118°15'816.8
2018-Feb-18 23:00N 23°54' E 118°10'816.7
2018-Feb-18 22:30N 23°47' E 118°05'918.2
2018-Feb-18 22:00N 23°39' E 117°59'918.0
2018-Feb-18 21:30N 23°32' E 117°53'917.5
2018-Feb-18 21:00N 23°26' E 117°47'917.4
2018-Feb-18 20:30N 23°20' E 117°40'917.5
2018-Feb-18 20:00N 23°13' E 117°33'918.0
2018-Feb-18 19:30N 23°06' E 117°27'1818.7
2018-Feb-18 18:33N 22°54' E 117°13'419.7
2018-Feb-18 18:22N 22°52' E 117°10'17215.5
2018-Feb-18 07:16N 22°20' E 114°07'1 1.7
2018-Feb-18 06:48N 22°20' E 114°08'  
2018-Feb-13 17:01N 01°24' E 104°28'314.3
2018-Feb-13 16:46N 01°21' E 104°25'2012.9
2018-Feb-13 15:12N 01°15' E 104°06'313.8
2018-Feb-13 15:00N 01°15' E 104°04'713.9
2018-Feb-13 14:31N 01°13' E 103°57'612.0
2018-Feb-13 14:00N 01°12' E 103°51'4 7.5
2018-Feb-13 13:30N 01°13' E 103°48'3 5.9
2018-Feb-13 12:56N 01°16' E 103°47'0 0.2
2018-Feb-13 12:26N 01°16' E 103°46'0 0.1
2018-Feb-13 11:56N 01°16' E 103°46'0 0.0
2018-Feb-13 11:29N 01°16' E 103°46'0 0.0
2018-Feb-13 10:59N 01°16' E 103°46'0 0.0
2018-Feb-13 10:26N 01°16' E 103°46'0 0.0
2018-Feb-13 09:59N 01°16' E 103°46'0 0.0
2018-Feb-13 09:29N 01°16' E 103°46'0 0.0
2018-Feb-13 08:56N 01°16' E 103°46'0 0.0
2018-Feb-13 08:26N 01°16' E 103°46'0 0.0
2018-Feb-13 07:56N 01°16' E 103°46'0 0.0
2018-Feb-13 07:26N 01°16' E 103°46'0 0.1
2018-Feb-13 06:59N 01°16' E 103°46'0 0.1
2018-Feb-13 06:29N 01°16' E 103°46'0 0.0
2018-Feb-13 05:59N 01°16' E 103°46'0 0.0
2018-Feb-13 05:29N 01°16' E 103°46'0 0.1
2018-Feb-13 04:56N 01°16' E 103°46'0 0.1
2018-Feb-13 04:20N 01°16' E 103°46'0 0.0
2018-Feb-13 03:56N 01°16' E 103°46'0 0.0
2018-Feb-13 03:26N 01°16' E 103°46'0 0.0
2018-Feb-13 02:56N 01°16' E 103°46'0 0.0
2018-Feb-13 02:29N 01°16' E 103°46'0 0.0
2018-Feb-13 01:59N 01°16' E 103°46'0 0.0
2018-Feb-13 01:29N 01°16' E 103°46'0 0.1
2018-Feb-13 00:56N 01°16' E 103°46'0 0.0
2018-Feb-13 00:29N 01°16' E 103°46'0 0.1
2018-Feb-12 23:59N 01°16' E 103°46'0 0.1
2018-Feb-12 23:29N 01°16' E 103°46'0 0.1
2018-Feb-12 22:56N 01°16' E 103°46'0 0.0
2018-Feb-12 22:26N 01°16' E 103°46'0 0.0
2018-Feb-12 21:59N 01°16' E 103°46'0 0.0
2018-Feb-12 21:29N 01°16' E 103°46'0 0.0
2018-Feb-12 20:56N 01°16' E 103°46'0 0.0
2018-Feb-12 20:26N 01°16' E 103°46'0 0.0
2018-Feb-12 19:56N 01°16' E 103°46'0 0.0
2018-Feb-12 19:29N 01°16' E 103°46'0 0.0
2018-Feb-12 18:59N 01°16' E 103°46'0 0.0
2018-Feb-12 18:29N 01°16' E 103°46'0 0.0
2018-Feb-12 17:56N 01°16' E 103°46'0 0.1
2018-Feb-12 17:26N 01°16' E 103°46'0 0.1
2018-Feb-12 16:56N 01°16' E 103°46'0 0.0
2018-Feb-12 16:26N 01°16' E 103°46'0 0.0
2018-Feb-12 15:50N 01°16' E 103°46'0 0.0
2018-Feb-12 15:14N 01°16' E 103°46'0 0.0
2018-Feb-12 14:56N 01°16' E 103°46'0 0.0
2018-Feb-12 14:26N 01°16' E 103°46'0 0.0
2018-Feb-12 14:00N 01°16' E 103°46'0 0.0
2018-Feb-12 13:30N 01°16' E 103°46'0 0.0
2018-Feb-12 13:00N 01°16' E 103°46'0 0.0
2018-Feb-12 12:24N 01°16' E 103°46'0 0.0
2018-Feb-12 12:00N 01°16' E 103°46'0 0.0
2018-Feb-12 11:30N 01°16' E 103°46'0 0.1
2018-Feb-12 11:00N 01°16' E 103°46'0 0.0
2018-Feb-12 10:30N 01°16' E 103°46'0 0.1
2018-Feb-12 10:00N 01°16' E 103°46'0 0.0
2018-Feb-12 09:30N 01°16' E 103°46'0 0.0
2018-Feb-12 09:00N 01°16' E 103°46'0 0.0
2018-Feb-12 08:30N 01°16' E 103°46'0 0.0
2018-Feb-12 08:00N 01°16' E 103°46'0 0.1
2018-Feb-12 07:30N 01°16' E 103°46'0 0.0
2018-Feb-12 07:00N 01°16' E 103°46'0 0.1
2018-Feb-12 06:30N 01°16' E 103°46'0 0.0
2018-Feb-12 06:00N 01°16' E 103°46'0 0.1
2018-Feb-12 05:30N 01°16' E 103°46'0 0.0
2018-Feb-12 05:00N 01°16' E 103°46'0 0.0
2018-Feb-12 04:30N 01°16' E 103°46'0 0.0
2018-Feb-12 03:57N 01°16' E 103°46'0 0.0
2018-Feb-12 03:30N 01°16' E 103°46'0 0.0
2018-Feb-12 02:54N 01°16' E 103°46'0 0.0
2018-Feb-12 02:30N 01°16' E 103°46'0 0.0
2018-Feb-12 02:00N 01°16' E 103°46'0 0.1
2018-Feb-12 01:30N 01°16' E 103°46'0 0.4
2018-Feb-12 01:00N 01°16' E 103°47'1 2.6
2018-Feb-12 00:30N 01°15' E 103°46'3 5.3
2018-Feb-12 00:00N 01°15' E 103°43'5 9.8
2018-Feb-11 23:29N 01°12' E 103°39'4 8.1
2018-Feb-11 23:00N 01°12' E 103°35'3 5.0
2018-Feb-11 22:30N 01°12' E 103°33'4 7.0
2018-Feb-11 22:00N 01°10' E 103°29'510.7
2018-Feb-11 21:29N 01°12' E 103°24'611.8
2018-Feb-11 20:57N 01°16' E 103°20'511.3
2018-Feb-11 20:30N 01°19' E 103°15'  

Dump ship's entire track history